createdAt,value
2018-03-14T00:00:00.572Z,8.27
2018-03-14T00:02:28.788Z,8.27
2018-03-14T00:04:56.238Z,7.60
2018-03-14T00:07:23.705Z,8.77
2018-03-14T00:09:51.126Z,8.85
2018-03-14T00:12:18.584Z,8.57
2018-03-14T00:14:46.009Z,9.55
2018-03-14T00:17:14.230Z,8.00
2018-03-14T00:19:41.665Z,7.40
2018-03-14T00:22:09.118Z,7.20
2018-03-14T00:24:36.557Z,10.05
2018-03-14T00:27:04.810Z,9.60
2018-03-14T00:29:32.348Z,9.07
2018-03-14T00:31:59.784Z,7.93
2018-03-14T00:34:27.238Z,7.87
2018-03-14T00:36:54.684Z,8.48
2018-03-14T00:39:22.155Z,7.45
2018-03-14T00:41:49.721Z,7.15
2018-03-14T00:44:17.192Z,7.32
2018-03-14T00:46:44.627Z,7.30
2018-03-14T00:49:12.075Z,5.85
2018-03-14T00:51:39.522Z,6.45
2018-03-14T00:54:07.045Z,7.87
2018-03-14T00:56:35.398Z,6.55
2018-03-14T00:59:03.593Z,6.32
2018-03-14T01:01:31.053Z,7.50
2018-03-14T01:03:58.548Z,6.30
2018-03-14T01:06:25.997Z,6.85
2018-03-14T01:08:53.493Z,6.55
2018-03-14T01:11:20.970Z,7.28
2018-03-14T01:13:48.388Z,6.68
2018-03-14T01:16:15.863Z,5.93
2018-03-14T01:18:43.345Z,6.28
2018-03-14T01:21:10.792Z,7.35
2018-03-14T01:23:38.237Z,7.70
2018-03-14T01:26:05.761Z,7.20
2018-03-14T01:28:33.852Z,8.25
2018-03-14T01:31:01.309Z,6.28
2018-03-14T01:33:28.769Z,8.02
2018-03-14T01:35:56.227Z,9.20
2018-03-14T01:38:23.761Z,7.45
2018-03-14T01:40:51.222Z,7.28
2018-03-14T01:43:18.710Z,9.20
2018-03-14T01:45:46.111Z,7.65
2018-03-14T01:48:13.551Z,8.60
2018-03-14T01:50:41.768Z,7.55
2018-03-14T01:53:21.091Z,7.68
2018-03-14T01:55:48.552Z,8.00
2018-03-14T01:58:16.003Z,8.40
2018-03-14T02:00:43.448Z,10.40
2018-03-14T02:03:10.916Z,8.70
2018-03-14T02:05:38.474Z,7.75
2018-03-14T02:08:05.932Z,7.60
2018-03-14T02:10:33.355Z,8.95
2018-03-14T02:13:01.579Z,8.05
2018-03-14T02:15:29.100Z,7.80
2018-03-14T02:17:56.586Z,8.68
2018-03-14T02:20:24.033Z,8.63
2018-03-14T02:22:51.483Z,9.52
2018-03-14T02:25:18.959Z,9.50
2018-03-14T02:27:46.414Z,10.10
2018-03-14T02:30:14.057Z,9.65
2018-03-14T02:32:41.499Z,8.65
2018-03-14T02:35:08.938Z,11.88
2018-03-14T02:37:37.147Z,8.63
2018-03-14T02:40:04.622Z,8.77
2018-03-14T02:42:32.063Z,10.27
2018-03-14T02:44:59.539Z,10.38
2018-03-14T02:47:26.979Z,9.98
2018-03-14T02:49:54.527Z,11.93
2018-03-14T02:52:21.955Z,8.30
2018-03-14T02:54:49.437Z,11.70
2018-03-14T02:57:16.889Z,10.45
2018-03-14T02:59:44.340Z,14.43
2018-03-14T03:02:11.785Z,10.65
2018-03-14T03:04:39.231Z,8.80
2018-03-14T03:07:06.667Z,10.75
2018-03-14T03:09:34.904Z,11.10
2018-03-14T03:12:02.375Z,14.25
2018-03-14T03:14:29.843Z,12.18
2018-03-14T03:16:57.353Z,11.77
2018-03-14T03:19:24.860Z,11.07
2018-03-14T03:21:52.250Z,12.77
2018-03-14T03:24:20.466Z,10.50
2018-03-14T03:26:48.104Z,9.90
2018-03-14T03:29:15.524Z,10.00
2018-03-14T03:31:43.756Z,9.90
2018-03-14T03:34:11.206Z,12.57
2018-03-14T03:36:38.654Z,10.05
2018-03-14T03:39:06.112Z,12.48
2018-03-14T03:41:34.338Z,10.88
2018-03-14T03:44:02.556Z,15.23
2018-03-14T03:46:30.123Z,13.85
2018-03-14T03:48:57.561Z,11.32
2018-03-14T03:51:25.021Z,12.15
2018-03-14T03:53:52.476Z,15.73
2018-03-14T03:56:19.994Z,11.50
2018-03-14T04:01:22.217Z,10.68
2018-03-14T04:03:49.839Z,12.27
2018-03-14T04:06:18.072Z,11.30
2018-03-14T04:08:45.525Z,12.60
2018-03-14T04:11:13.738Z,11.77
2018-03-14T04:13:41.984Z,14.05
2018-03-14T04:16:09.428Z,13.13
2018-03-14T04:18:36.883Z,12.45
2018-03-14T04:21:04.334Z,11.82
2018-03-14T04:23:31.893Z,12.13
2018-03-14T04:25:59.363Z,12.48
2018-03-14T04:28:26.824Z,11.80
2018-03-14T04:30:54.382Z,12.27
2018-03-14T04:33:21.927Z,11.48
2018-03-14T04:35:49.376Z,12.60
2018-03-14T04:38:16.857Z,10.57
2018-03-14T04:40:44.289Z,10.68
2018-03-14T04:43:11.763Z,12.15
2018-03-14T04:45:39.219Z,10.15
2018-03-14T04:48:06.659Z,12.93
2018-03-14T04:50:34.135Z,8.25
2018-03-14T04:53:01.570Z,10.82
2018-03-14T04:55:29.028Z,10.40
2018-03-14T04:57:56.483Z,12.20
2018-03-14T05:00:23.948Z,10.55
2018-03-14T05:02:51.389Z,10.90
2018-03-14T05:05:18.880Z,9.48
2018-03-14T05:07:46.316Z,11.30
2018-03-14T05:10:13.919Z,9.77
2018-03-14T05:12:42.180Z,8.57
2018-03-14T05:15:10.424Z,9.93
2018-03-14T05:17:37.862Z,9.85
2018-03-14T05:20:05.341Z,12.40
2018-03-14T05:22:32.799Z,10.82
2018-03-14T05:25:00.269Z,10.60
2018-03-14T05:27:27.728Z,12.40
2018-03-14T05:29:55.200Z,11.48
2018-03-14T05:32:23.452Z,11.68
2018-03-14T05:34:50.912Z,12.75
2018-03-14T05:37:18.373Z,17.98
2018-03-14T05:39:46.589Z,16.80
2018-03-14T05:42:14.084Z,24.25
2018-03-14T05:44:41.515Z,22.00
2018-03-14T05:47:09.008Z,26.10
2018-03-14T05:49:36.462Z,20.23
2018-03-14T05:52:03.957Z,18.08
2018-03-14T05:54:31.406Z,17.65
2018-03-14T05:57:00.376Z,18.02
2018-03-14T05:59:27.818Z,16.67
2018-03-14T06:01:55.307Z,15.02
2018-03-14T06:04:23.630Z,11.23
2018-03-14T06:06:51.102Z,13.98
2018-03-14T06:09:18.601Z,14.95
2018-03-14T06:11:46.017Z,11.68
2018-03-14T06:14:13.508Z,13.27
2018-03-14T06:16:41.766Z,13.27
2018-03-14T06:19:09.991Z,15.93
2018-03-14T06:21:37.468Z,15.65
2018-03-14T06:24:04.920Z,11.07
2018-03-14T06:26:32.355Z,11.75
2018-03-14T06:28:59.832Z,13.85
2018-03-14T06:31:27.314Z,9.48
2018-03-14T06:33:54.860Z,11.12
2018-03-14T06:36:22.291Z,13.02
2018-03-14T06:38:49.750Z,11.63
2018-03-14T06:41:17.196Z,10.32
2018-03-14T06:43:45.502Z,11.30
2018-03-14T06:46:12.939Z,10.65
2018-03-14T06:48:41.701Z,11.48
2018-03-14T06:51:09.634Z,10.65
2018-03-14T06:53:37.099Z,11.32
2018-03-14T06:56:04.556Z,11.52
2018-03-14T06:58:44.090Z,13.50
2018-03-14T07:01:23.346Z,14.48
2018-03-14T07:04:02.692Z,12.85
2018-03-14T07:06:30.278Z,11.43
2018-03-14T07:08:57.783Z,12.90
2018-03-14T07:11:25.252Z,9.95
2018-03-14T07:13:52.700Z,11.73
2018-03-14T07:16:20.253Z,10.38
2018-03-14T07:18:47.710Z,10.55
2018-03-14T07:21:15.944Z,11.35
2018-03-14T07:23:43.444Z,8.48
2018-03-14T07:26:10.927Z,10.60
2018-03-14T07:28:38.367Z,11.25
2018-03-14T07:31:05.931Z,14.60
2018-03-14T07:33:33.376Z,9.35
2018-03-14T07:36:00.848Z,11.05
2018-03-14T07:38:28.359Z,13.90
2018-03-14T07:40:55.900Z,11.27
2018-03-14T07:43:24.227Z,11.07
2018-03-14T07:45:51.690Z,13.77
2018-03-14T07:48:19.227Z,12.02
2018-03-14T07:50:46.681Z,12.98
2018-03-14T07:53:14.224Z,14.05
2018-03-14T07:55:41.677Z,15.52
2018-03-14T07:58:09.155Z,11.95
2018-03-14T08:00:41.270Z,12.37
2018-03-14T08:03:08.728Z,12.48
2018-03-14T08:05:36.172Z,11.10
2018-03-14T08:08:03.969Z,9.73
2018-03-14T08:10:31.407Z,13.10
2018-03-14T08:12:58.868Z,10.82
2018-03-14T08:15:26.312Z,13.43
2018-03-14T08:17:53.836Z,13.25
2018-03-14T08:20:21.339Z,11.80
2018-03-14T08:22:48.790Z,12.80
2018-03-14T08:25:16.281Z,13.73
2018-03-14T08:27:43.821Z,9.98
2018-03-14T08:30:11.287Z,17.33
2018-03-14T08:32:38.757Z,11.20
2018-03-14T08:35:06.236Z,13.30
2018-03-14T08:37:33.688Z,13.10
2018-03-14T08:40:01.161Z,13.65
2018-03-14T08:42:28.623Z,13.80
2018-03-14T08:44:56.869Z,17.95
2018-03-14T08:47:24.314Z,14.43
2018-03-14T08:49:51.782Z,15.82
2018-03-14T08:52:19.221Z,13.88
2018-03-14T08:54:46.679Z,16.77
2018-03-14T08:57:14.119Z,16.00
2018-03-14T08:59:41.598Z,11.82
2018-03-14T09:02:09.057Z,13.70
2018-03-14T09:04:36.565Z,13.07
2018-03-14T09:07:04.028Z,16.15
2018-03-14T09:09:31.487Z,13.77
2018-03-14T09:11:58.954Z,14.20
2018-03-14T09:14:26.411Z,14.25
2018-03-14T09:16:54.647Z,13.50
2018-03-14T09:19:22.170Z,14.02
2018-03-14T09:21:49.775Z,13.55
2018-03-14T09:24:18.008Z,13.50
2018-03-14T09:26:45.463Z,17.12
2018-03-14T09:29:12.918Z,15.80
2018-03-14T09:31:41.098Z,13.43
2018-03-14T09:34:08.535Z,13.68
2018-03-14T09:36:35.993Z,14.00
2018-03-14T09:39:03.472Z,15.55
2018-03-14T09:41:30.908Z,15.93
2018-03-14T09:43:58.386Z,13.15
2018-03-14T09:46:25.840Z,14.57
2018-03-14T09:48:54.066Z,14.25
2018-03-14T09:51:21.529Z,14.90
2018-03-14T09:53:49.001Z,13.25
2018-03-14T09:56:16.470Z,13.43
2018-03-14T09:58:43.951Z,15.32
2018-03-14T10:01:11.403Z,16.52
2018-03-14T10:03:39.795Z,15.13
2018-03-14T10:06:07.236Z,20.30
2018-03-14T10:08:34.688Z,16.52
2018-03-14T10:11:02.141Z,15.30
2018-03-14T10:13:29.611Z,13.57
2018-03-14T10:15:57.147Z,12.88
2018-03-14T10:18:24.613Z,11.77
2018-03-14T10:20:52.072Z,13.40
2018-03-14T10:23:19.524Z,13.70
2018-03-14T10:25:47.874Z,14.40
2018-03-14T10:28:15.220Z,13.73
2018-03-14T10:30:42.727Z,14.47
2018-03-14T10:33:10.263Z,11.43
2018-03-14T10:35:37.744Z,13.90
2018-03-14T10:38:05.194Z,13.23
2018-03-14T10:40:32.661Z,10.03
2018-03-14T10:43:00.112Z,12.07
2018-03-14T10:45:28.351Z,9.37
2018-03-14T10:47:55.878Z,10.53
2018-03-14T10:50:23.343Z,9.63
2018-03-14T10:52:50.804Z,21.13
2018-03-14T10:55:18.267Z,7.70
2018-03-14T10:57:46.199Z,7.67
2018-03-14T11:00:19.290Z,7.37
2018-03-14T11:02:52.362Z,9.20
2018-03-14T11:05:20.300Z,7.90
2018-03-14T11:07:53.185Z,7.75
2018-03-14T11:10:20.614Z,9.97
2018-03-14T11:13:08.218Z,8.23
2018-03-14T11:15:36.994Z,8.87
2018-03-14T11:18:04.498Z,8.90
2018-03-14T11:20:32.387Z,8.00
2018-03-14T11:22:59.853Z,7.87
2018-03-14T11:25:27.301Z,7.60
2018-03-14T11:27:55.599Z,7.27
2018-03-14T11:30:23.846Z,7.60
2018-03-14T11:32:51.321Z,8.10
2018-03-14T11:35:18.772Z,8.00
2018-03-14T11:37:46.308Z,6.03
2018-03-14T11:40:13.784Z,8.80
2018-03-14T11:42:41.308Z,6.00
2018-03-14T11:45:09.764Z,6.43
2018-03-14T11:47:37.233Z,7.43
2018-03-14T11:50:04.709Z,7.17
2018-03-14T11:52:33.040Z,6.10
2018-03-14T11:55:01.421Z,6.67
2018-03-14T11:57:29.674Z,6.23
2018-03-14T11:59:57.135Z,6.40
2018-03-14T12:02:24.617Z,6.30
2018-03-14T12:04:52.156Z,8.33
2018-03-14T12:07:21.005Z,7.10
2018-03-14T12:09:49.211Z,8.00
2018-03-14T12:12:16.698Z,6.83
2018-03-14T12:14:44.140Z,5.70
2018-03-14T12:17:11.610Z,7.53
2018-03-14T12:19:39.076Z,9.97
2018-03-14T12:22:21.407Z,12.80
2018-03-14T12:24:48.875Z,6.43
2018-03-14T12:27:16.320Z,8.70
2018-03-14T12:29:43.800Z,9.73
2018-03-14T12:32:11.243Z,9.13
2018-03-14T12:34:38.726Z,14.30
2018-03-14T12:37:06.236Z,9.33
2018-03-14T12:39:33.748Z,8.50
2018-03-14T12:42:01.192Z,11.60
2018-03-14T12:44:28.692Z,8.37
2018-03-14T12:46:56.147Z,9.23
2018-03-14T12:49:23.621Z,8.27
2018-03-14T12:51:51.153Z,8.40
2018-03-14T12:54:19.674Z,8.37
2018-03-14T12:56:47.212Z,7.10
2018-03-14T12:59:14.902Z,7.93
2018-03-14T13:01:43.228Z,8.50
2018-03-14T13:04:10.782Z,8.83
2018-03-14T13:06:39.269Z,8.80
2018-03-14T13:09:06.847Z,8.43
2018-03-14T13:11:34.429Z,9.23
2018-03-14T13:14:02.425Z,9.47
2018-03-14T13:16:33.758Z,8.13
2018-03-14T13:19:01.739Z,9.07
2018-03-14T13:21:29.287Z,15.40
2018-03-14T13:23:56.820Z,9.37
2018-03-14T13:26:25.112Z,9.07
2018-03-14T13:28:52.646Z,8.53
2018-03-14T13:31:20.164Z,9.97
2018-03-14T13:33:48.424Z,13.30
2018-03-14T13:36:15.940Z,12.37
2018-03-14T13:38:43.479Z,12.60
2018-03-14T13:41:10.967Z,10.13
2018-03-14T13:43:38.459Z,10.27
2018-03-14T13:46:05.911Z,8.23
2018-03-14T13:48:33.376Z,9.23
2018-03-14T13:51:00.871Z,9.47
2018-03-14T13:53:28.307Z,9.53
2018-03-14T13:55:55.757Z,8.60
2018-03-14T13:58:23.246Z,9.23
2018-03-14T14:00:51.736Z,9.87
2018-03-14T14:03:20.294Z,8.80
2018-03-14T14:05:48.585Z,10.93
2018-03-14T14:08:16.050Z,17.10
2018-03-14T14:10:43.512Z,12.40
2018-03-14T14:13:10.983Z,11.50
2018-03-14T14:15:38.471Z,11.73
2018-03-14T14:18:05.928Z,10.30
2018-03-14T14:20:33.392Z,11.70
2018-03-14T14:23:01.615Z,15.73
2018-03-14T14:25:29.091Z,11.83
2018-03-14T14:27:56.570Z,11.83
2018-03-14T14:30:24.033Z,10.93
2018-03-14T14:32:51.551Z,13.67
2018-03-14T14:35:19.028Z,13.20
2018-03-14T14:37:46.473Z,11.87
2018-03-14T14:40:13.955Z,12.30
2018-03-14T14:42:41.399Z,14.30
2018-03-14T14:45:08.866Z,12.20
2018-03-14T14:47:36.318Z,16.13
2018-03-14T14:50:03.787Z,12.27
2018-03-14T14:52:32.021Z,13.73
2018-03-14T14:54:59.484Z,16.93
2018-03-14T14:57:26.998Z,17.50
2018-03-14T14:59:54.490Z,16.00
2018-03-14T15:02:21.947Z,13.27
2018-03-14T15:04:49.435Z,19.87
2018-03-14T15:07:17.799Z,12.33
2018-03-14T15:09:45.260Z,14.17
2018-03-14T15:12:12.737Z,12.87
2018-03-14T15:14:40.952Z,11.23
2018-03-14T15:17:08.423Z,13.13
2018-03-14T15:19:35.887Z,16.47
2018-03-14T15:22:03.337Z,11.97
2018-03-14T15:24:30.804Z,11.97
2018-03-14T15:26:58.320Z,11.23
2018-03-14T15:29:26.520Z,13.63
2018-03-14T15:31:54.006Z,12.23
2018-03-14T15:34:21.457Z,13.67
2018-03-14T15:36:48.932Z,14.20
2018-03-14T15:39:16.376Z,15.93
2018-03-14T15:41:43.833Z,17.03
2018-03-14T15:44:11.305Z,12.47
2018-03-14T15:46:38.747Z,14.23
2018-03-14T15:49:06.391Z,12.10
2018-03-14T15:51:33.877Z,12.40
2018-03-14T15:54:02.840Z,12.07
2018-03-14T15:56:30.387Z,13.47
2018-03-14T15:58:57.880Z,14.33
2018-03-14T16:01:26.093Z,11.43
2018-03-14T16:03:53.577Z,14.13
2018-03-14T16:06:21.036Z,14.57
2018-03-14T16:08:49.270Z,12.97
2018-03-14T16:11:16.741Z,13.32
2018-03-14T16:13:44.215Z,11.68
2018-03-14T16:16:11.679Z,11.75
2018-03-14T16:18:39.152Z,15.63
2018-03-14T16:21:06.718Z,13.98
2018-03-14T16:23:35.057Z,11.77
2018-03-14T16:26:02.530Z,15.07
2018-03-14T16:28:30.060Z,12.32
2018-03-14T16:30:57.529Z,13.30
2018-03-14T16:33:25.009Z,10.23
2018-03-14T16:35:52.541Z,11.55
2018-03-14T17:02:38.596Z,11.35
2018-03-14T17:05:06.095Z,13.43
2018-03-14T17:07:34.322Z,13.75
2018-03-14T17:10:01.843Z,11.40
2018-03-14T17:12:29.336Z,12.20
2018-03-14T17:14:56.790Z,12.98
2018-03-14T17:17:25.073Z,19.52
2018-03-14T17:19:52.855Z,18.27
2018-03-14T17:22:20.313Z,16.42
2018-03-14T17:24:47.782Z,15.23
2018-03-14T17:27:15.273Z,14.10
2018-03-14T17:29:42.713Z,16.08
2018-03-14T17:32:10.976Z,14.98
2018-03-14T17:34:38.412Z,16.02
2018-03-14T17:37:05.871Z,13.73
2018-03-14T17:39:33.331Z,15.10
2018-03-14T17:42:00.826Z,13.75
2018-03-14T17:44:28.299Z,12.88
2018-03-14T17:46:55.770Z,13.52
2018-03-14T17:49:23.233Z,13.68
2018-03-14T17:51:50.805Z,13.10
2018-03-14T17:54:18.331Z,17.48
2018-03-14T17:56:45.884Z,11.57
2018-03-14T17:59:13.438Z,14.13
2018-03-14T18:01:41.119Z,14.35
2018-03-14T18:04:08.586Z,14.85
2018-03-14T18:06:36.059Z,15.57
2018-03-14T18:09:03.540Z,13.25
2018-03-14T18:11:31.831Z,14.32
2018-03-14T18:13:59.329Z,13.82
2018-03-14T18:16:26.770Z,18.15
2018-03-14T18:18:54.246Z,12.30
2018-03-14T18:21:21.792Z,11.50
2018-03-14T18:23:50.531Z,15.30
2018-03-14T18:26:17.987Z,15.82
2018-03-14T18:28:45.539Z,15.77
2018-03-14T18:31:13.772Z,18.77
2018-03-14T18:33:41.276Z,17.50
2018-03-14T18:36:09.497Z,14.77
2018-03-14T18:38:36.998Z,15.27
2018-03-14T18:41:05.291Z,16.00
2018-03-14T18:43:32.755Z,16.25
2018-03-14T18:46:00.258Z,15.40
2018-03-14T18:48:27.732Z,18.00
2018-03-14T18:50:55.226Z,18.67
2018-03-14T18:53:29.316Z,17.70
2018-03-14T18:55:56.783Z,16.48
2018-03-14T18:58:24.233Z,12.93
2018-03-14T19:00:52.506Z,15.32
2018-03-14T19:03:20.800Z,14.73
2018-03-14T19:05:48.295Z,15.23
2018-03-14T19:08:15.756Z,19.40
2018-03-14T19:10:43.213Z,17.77
2018-03-14T19:13:10.676Z,18.80
2018-03-14T19:15:38.652Z,19.25
2018-03-14T19:18:06.103Z,16.40
2018-03-14T19:20:33.591Z,19.30
2018-03-14T19:23:01.800Z,17.83
2018-03-14T19:25:29.283Z,20.45
2018-03-14T19:27:56.848Z,18.23
2018-03-14T19:30:24.345Z,21.17
2018-03-14T19:32:51.796Z,20.02
2018-03-14T19:35:20.596Z,18.62
2018-03-14T19:37:48.170Z,18.12
2018-03-14T19:40:15.597Z,18.98
2018-03-14T19:42:43.117Z,17.52
2018-03-14T19:45:10.683Z,18.33
2018-03-14T19:47:38.151Z,19.77
2018-03-14T19:50:05.601Z,18.87
2018-03-14T19:52:33.150Z,19.92
2018-03-14T19:55:00.653Z,23.08
2018-03-14T19:57:28.118Z,15.50
2018-03-14T19:59:55.655Z,18.00
2018-03-14T20:02:24.168Z,17.27
2018-03-14T20:04:51.724Z,17.77
2018-03-14T20:07:19.366Z,16.62
2018-03-14T20:09:46.878Z,17.00
2018-03-14T20:12:14.426Z,17.05
2018-03-14T20:14:42.068Z,19.12
2018-03-14T20:17:09.508Z,17.42
2018-03-14T20:19:37.036Z,16.65
2018-03-14T20:22:04.603Z,17.30
2018-03-14T20:24:32.210Z,17.37
2018-03-14T20:26:59.676Z,20.62
2018-03-14T20:29:27.175Z,13.50
2018-03-14T20:31:54.696Z,18.20
2018-03-14T20:34:22.496Z,16.17
2018-03-14T20:36:50.689Z,19.35
2018-03-14T20:39:18.131Z,16.95
2018-03-14T20:41:45.715Z,14.75
2018-03-14T20:44:13.152Z,19.25
2018-03-14T20:46:40.724Z,18.48
2018-03-14T20:49:08.172Z,18.33
2018-03-14T20:51:35.717Z,15.45
2018-03-14T20:54:03.175Z,17.33
2018-03-14T20:56:30.644Z,14.35
2018-03-14T20:58:58.117Z,15.57
2018-03-14T21:01:25.547Z,17.62
2018-03-14T21:03:52.996Z,14.40
2018-03-14T21:06:20.463Z,17.25
2018-03-14T21:08:47.938Z,17.00
2018-03-14T21:11:15.404Z,17.90
2018-03-14T21:13:42.850Z,16.52
2018-03-14T21:16:10.665Z,18.12
2018-03-14T21:18:38.117Z,16.33
2018-03-14T21:21:05.597Z,16.20
2018-03-14T21:23:33.796Z,18.45
2018-03-14T21:26:01.253Z,18.77
2018-03-14T21:28:28.743Z,16.20
2018-03-14T21:30:56.231Z,16.62
2018-03-14T21:33:23.685Z,17.12
2018-03-14T21:35:51.199Z,18.42
2018-03-14T21:38:18.911Z,18.50
2018-03-14T21:40:46.318Z,16.42
2018-03-14T21:43:13.776Z,17.35
2018-03-14T21:45:41.223Z,18.80
2018-03-14T21:48:08.755Z,19.92
2018-03-14T21:50:36.283Z,17.77
2018-03-14T21:53:03.855Z,19.37
2018-03-14T21:55:39.970Z,18.20
2018-03-14T21:58:07.418Z,20.65
2018-03-14T22:00:34.872Z,23.52
2018-03-14T22:03:02.470Z,17.20
2018-03-14T22:05:29.893Z,18.60
2018-03-14T22:07:58.141Z,20.15
2018-03-14T22:10:25.666Z,15.77
2018-03-14T22:12:53.152Z,26.25
2018-03-14T22:15:20.630Z,15.90
2018-03-14T22:17:48.099Z,22.17
2018-03-14T22:20:15.556Z,17.80
2018-03-14T22:22:43.036Z,18.02
2018-03-14T22:25:10.592Z,22.13
2018-03-14T22:27:38.855Z,16.80
2018-03-14T22:30:06.343Z,16.55
2018-03-14T22:32:33.812Z,19.48
2018-03-14T22:35:01.316Z,21.77
2018-03-14T22:37:28.834Z,16.27
2018-03-14T22:39:56.283Z,17.45
2018-03-14T22:42:23.758Z,18.87
2018-03-14T22:44:51.229Z,16.15
2018-03-14T22:47:18.678Z,18.70
2018-03-14T22:49:46.581Z,22.00
2018-03-14T22:52:14.263Z,21.42
2018-03-14T22:54:42.454Z,17.05
2018-03-14T22:57:09.941Z,19.25
2018-03-14T22:59:38.205Z,20.98
2018-03-14T23:02:05.708Z,18.60
2018-03-14T23:04:33.925Z,20.55
2018-03-14T23:07:01.408Z,19.02
2018-03-14T23:09:28.858Z,17.70
2018-03-14T23:11:56.345Z,20.23
2018-03-14T23:14:23.885Z,18.73
2018-03-14T23:16:52.097Z,19.25
2018-03-14T23:19:20.300Z,17.85
2018-03-14T23:21:47.859Z,19.37
2018-03-14T23:24:17.542Z,17.80
2018-03-14T23:26:45.010Z,23.02
2018-03-14T23:29:12.584Z,18.12
2018-03-14T23:31:44.431Z,17.17
2018-03-14T23:34:11.886Z,24.10
2018-03-14T23:36:39.357Z,21.27
2018-03-14T23:39:06.842Z,19.12
2018-03-14T23:41:34.316Z,18.92
2018-03-14T23:44:01.847Z,17.90
2018-03-14T23:46:29.297Z,17.02
2018-03-14T23:48:56.766Z,21.80
2018-03-14T23:51:24.829Z,19.65
2018-03-14T23:53:52.290Z,18.20
2018-03-14T23:56:19.931Z,17.20
2018-03-14T23:58:47.392Z,20.52
